Time;durP1;ratioP1;P1;durP2;ratioP2;P2;SDS_P1;SDS_P2;PMS_P1;PMS_P2;Temp;Humidity;BMP_temperature;BMP_pressure;BME280_temperature;BME280_humidity;BME280_pressure;Samples;Min_cycle;Max_cycle;Signal;HPM_P1;HPM_P2
2023/03/03 00:02:04;;;;;;;8.27;5.00;;;;;;;4.63;99.94;95210.44;4972867;28;20279;-69
2023/03/03 00:04:29;;;;;;;12.90;5.90;;;;;;;4.58;100.00;95216.09;5004471;28;20706;-70
2023/03/03 00:06:54;;;;;;;8.17;4.87;;;;;;;4.61;99.98;95220.94;5024675;28;20234;-70
2023/03/03 00:09:20;;;;;;;6.90;4.53;;;;;;;4.52;100.00;95210.69;5024257;28;20300;-70
2023/03/03 00:11:51;;;;;;;7.87;4.83;;;;;;;4.57;100.00;95205.84;5023886;28;20307;-69
2023/03/03 00:14:35;;;;;;;8.27;4.90;;;;;;;4.65;100.00;95203.31;4989792;28;20328;-68
2023/03/03 00:17:01;;;;;;;7.53;4.67;;;;;;;4.41;100.00;95203.19;4990161;28;20230;-69
2023/03/03 00:19:26;;;;;;;8.23;5.27;;;;;;;4.47;100.00;95197.38;4988454;28;20296;-69
2023/03/03 00:21:52;;;;;;;8.00;5.20;;;;;;;4.45;100.00;95204.50;5023435;28;20295;-68
2023/03/03 00:24:22;;;;;;;8.90;5.33;;;;;;;4.59;100.00;95199.56;4985970;28;20537;-69
2023/03/03 00:26:54;;;;;;;9.10;5.27;;;;;;;4.52;100.00;95195.97;4996600;28;20234;-69
2023/03/03 00:29:25;;;;;;;10.53;5.80;;;;;;;4.41;100.00;95196.25;4990214;28;20234;-69
2023/03/03 00:31:51;;;;;;;8.00;5.13;;;;;;;4.39;100.00;95192.19;5024056;28;20241;-70
2023/03/03 00:34:16;;;;;;;9.93;6.10;;;;;;;4.40;100.00;95193.78;5005925;28;20236;-69
2023/03/03 00:36:42;;;;;;;9.03;5.40;;;;;;;4.52;100.00;95190.78;5023168;28;20249;-69
2023/03/03 00:39:26;;;;;;;8.77;5.57;;;;;;;4.49;100.00;95192.88;4987034;28;20230;-69
2023/03/03 00:41:52;;;;;;;10.80;5.97;;;;;;;4.43;100.00;95191.72;5020939;28;20265;-69
2023/03/03 00:44:45;;;;;;;9.67;5.50;;;;;;;4.41;100.00;95182.47;4990226;28;20244;-68
2023/03/03 00:47:28;;;;;;;9.03;5.80;;;;;;;4.34;100.00;95178.88;5023014;28;20314;-68
2023/03/03 00:50:06;;;;;;;27.57;12.30;;;;;;;4.34;100.00;95176.28;5024183;28;20295;-68
2023/03/03 00:52:37;;;;;;;59.17;25.20;;;;;;;4.37;100.00;95166.41;5007321;28;20225;-68
2023/03/03 00:55:03;;;;;;;28.87;14.03;;;;;;;4.43;100.00;95165.00;4972421;28;20230;-68
2023/03/03 00:57:29;;;;;;;17.13;9.43;;;;;;;4.30;100.00;95156.84;4991452;28;20222;-69
2023/03/03 00:59:54;;;;;;;54.47;23.50;;;;;;;4.44;100.00;95157.03;4985905;28;20245;-69
2023/03/03 01:02:20;;;;;;;27.93;13.77;;;;;;;4.20;100.00;95154.38;4994422;28;20680;-69
2023/03/03 01:04:48;;;;;;;16.53;9.40;;;;;;;4.27;100.00;95145.03;5009027;28;20620;-68
2023/03/03 01:07:14;;;;;;;26.07;11.90;;;;;;;4.29;100.00;95137.91;4977092;28;20296;-68
2023/03/03 01:09:39;;;;;;;19.30;9.40;;;;;;;4.29;100.00;95142.25;4970070;28;20712;-69
2023/03/03 01:12:05;;;;;;;14.17;7.23;;;;;;;4.13;100.00;95143.03;4991903;28;20230;-69
2023/03/03 01:14:31;;;;;;;15.07;8.47;;;;;;;4.25;100.00;95141.75;4999132;28;20225;-69
2023/03/03 01:16:56;;;;;;;11.13;6.50;;;;;;;4.39;100.00;95137.78;4991927;28;20234;-68
2023/03/03 01:19:21;;;;;;;12.20;6.80;;;;;;;4.24;100.00;95140.16;5009770;28;20242;-69
2023/03/03 01:21:47;;;;;;;15.57;8.17;;;;;;;4.28;100.00;95143.22;4973267;28;20300;-69
2023/03/03 01:24:12;;;;;;;15.50;8.50;;;;;;;4.30;100.00;95144.69;5026703;28;20248;-70
2023/03/03 01:26:38;;;;;;;23.30;11.17;;;;;;;4.36;100.00;95141.50;5008132;28;20238;-68
2023/03/03 01:29:03;;;;;;;18.20;9.63;;;;;;;4.18;100.00;95139.97;4993915;28;20227;-68
2023/03/03 01:31:29;;;;;;;16.73;8.60;;;;;;;4.19;100.00;95144.97;4992125;28;20233;-68
2023/03/03 01:33:54;;;;;;;19.10;9.00;;;;;;;4.35;100.00;95139.03;5008918;28;20226;-68
2023/03/03 01:36:24;;;;;;;17.43;9.30;;;;;;;4.28;100.00;95138.03;5009177;28;20241;-69
2023/03/03 01:38:50;;;;;;;19.70;10.60;;;;;;;4.37;100.00;95130.16;4973027;28;20255;-68
2023/03/03 01:41:15;;;;;;;14.70;7.43;;;;;;;4.41;100.00;95133.25;4998687;28;20671;-69
2023/03/03 01:43:45;;;;;;;19.07;9.87;;;;;;;4.46;100.00;95136.19;5008734;28;20722;-68
2023/03/03 01:46:26;;;;;;;19.80;10.50;;;;;;;4.48;100.00;95129.88;4985946;28;20299;-69
2023/03/03 01:48:55;;;;;;;11.73;6.27;;;;;;;4.16;100.00;95134.91;4988685;28;20315;-68
2023/03/03 01:51:22;;;;;;;18.43;9.33;;;;;;;4.20;100.00;95128.47;5008620;28;20790;-68
2023/03/03 01:53:53;;;;;;;13.20;7.50;;;;;;;4.08;100.00;95132.31;5008914;28;20715;-68
2023/03/03 01:56:19;;;;;;;12.20;7.20;;;;;;;4.08;100.00;95127.13;4989525;28;20363;-69
2023/03/03 01:58:47;;;;;;;16.93;9.50;;;;;;;4.28;100.00;95122.50;4970546;28;20616;-68
2023/03/03 02:01:14;;;;;;;15.37;8.03;;;;;;;4.37;100.00;95132.72;4989988;28;20775;-69
2023/03/03 02:03:40;;;;;;;13.00;7.17;;;;;;;4.42;100.00;95122.72;4992737;28;20313;-69
2023/03/03 02:06:08;;;;;;;11.53;6.00;;;;;;;4.19;100.00;95128.63;4992566;28;20314;-68
2023/03/03 02:08:41;;;;;;;10.70;6.00;;;;;;;4.17;100.00;95127.97;4974198;28;20227;-69
2023/03/03 02:11:07;;;;;;;9.87;5.80;;;;;;;4.15;100.00;95120.38;4992337;28;20321;-68
2023/03/03 02:13:32;;;;;;;10.80;6.40;;;;;;;4.00;100.00;95127.91;4992813;28;20321;-67
2023/03/03 02:15:58;;;;;;;9.63;6.10;;;;;;;4.13;100.00;95129.25;5005255;28;20292;-68
2023/03/03 02:18:24;;;;;;;8.97;5.30;;;;;;;4.35;100.00;95116.53;4991920;28;20313;-68
2023/03/03 02:21:08;;;;;;;13.20;6.87;;;;;;;4.25;100.00;95128.78;5007954;28;20620;-69
2023/03/03 02:23:59;;;;;;;10.03;5.70;;;;;;;4.33;100.00;95128.03;4998469;28;20326;-70
2023/03/03 02:26:26;;;;;;;21.20;9.03;;;;;;;4.16;100.00;95126.31;4976729;28;20257;-69
2023/03/03 02:28:51;;;;;;;12.53;6.77;;;;;;;4.18;100.00;95119.25;4974966;28;20636;-68
2023/03/03 02:31:19;;;;;;;10.33;6.07;;;;;;;4.08;100.00;95127.13;4986812;28;20235;-69
2023/03/03 02:33:46;;;;;;;15.63;8.73;;;;;;;4.12;100.00;95125.03;4989337;28;20309;-69
2023/03/03 02:36:13;;;;;;;9.00;5.03;;;;;;;4.11;100.00;95120.84;4992033;28;20284;-70
2023/03/03 02:38:41;;;;;;;10.10;5.70;;;;;;;4.13;100.00;95127.47;4986436;28;20233;-70
2023/03/03 02:41:11;;;;;;;11.77;6.63;;;;;;;4.22;100.00;95131.72;5008374;28;20230;-69
2023/03/03 02:44:07;;;;;;;10.13;5.97;;;;;;;4.19;100.00;95126.03;5007023;28;20286;-69
2023/03/03 02:46:37;;;;;;;8.97;5.20;;;;;;;4.13;100.00;95122.31;5003346;28;20288;-69
2023/03/03 02:49:03;;;;;;;10.53;6.30;;;;;;;4.15;100.00;95127.31;4974950;28;20233;-68
2023/03/03 02:51:29;;;;;;;12.47;7.23;;;;;;;4.12;100.00;95125.84;4988788;28;20242;-69
2023/03/03 02:53:54;;;;;;;13.43;8.10;;;;;;;4.11;100.00;95121.63;4987515;28;20227;-68
2023/03/03 02:56:19;;;;;;;11.27;5.90;;;;;;;4.07;100.00;95122.91;4979170;28;20245;-69
2023/03/03 02:58:45;;;;;;;11.40;6.57;;;;;;;4.09;100.00;95118.38;4990833;28;20241;-68
2023/03/03 03:01:10;;;;;;;10.03;6.13;;;;;;;4.14;100.00;95115.31;4990796;28;20237;-68
2023/03/03 03:03:36;;;;;;;12.53;6.83;;;;;;;4.19;100.00;95121.66;4991313;28;20234;-69
2023/03/03 03:06:02;;;;;;;14.03;7.23;;;;;;;4.17;100.00;95115.84;4986398;28;20226;-69
2023/03/03 03:08:27;;;;;;;14.77;7.30;;;;;;;4.07;100.00;95115.94;4991873;28;20288;-69
2023/03/03 03:10:53;;;;;;;11.30;6.63;;;;;;;3.92;100.00;95120.06;5006139;28;20826;-68
2023/03/03 03:13:18;;;;;;;12.40;6.97;;;;;;;4.01;100.00;95118.34;4989296;28;20321;-69
2023/03/03 03:15:45;;;;;;;13.37;7.17;;;;;;;4.09;100.00;95114.00;5007054;28;20235;-69
2023/03/03 03:18:10;;;;;;;12.23;7.13;;;;;;;3.94;100.00;95115.56;4975257;28;20241;-69
2023/03/03 03:20:38;;;;;;;13.60;7.00;;;;;;;3.93;100.00;95113.13;4986442;28;20229;-69
2023/03/03 03:23:04;;;;;;;12.40;6.90;;;;;;;3.94;100.00;95115.56;5007693;28;20226;-68
2023/03/03 03:25:30;;;;;;;11.07;6.70;;;;;;;4.00;100.00;95112.34;5007587;28;20241;-69
2023/03/03 03:27:55;;;;;;;13.47;7.37;;;;;;;4.09;100.00;95108.84;5006085;28;20665;-67
2023/03/03 03:30:21;;;;;;;13.17;7.77;;;;;;;3.99;100.00;95110.72;4973793;28;21342;-68
2023/03/03 03:32:47;;;;;;;13.23;7.23;;;;;;;4.13;100.00;95111.94;4990454;28;20662;-69
2023/03/03 03:35:12;;;;;;;12.80;7.40;;;;;;;4.08;100.00;95109.78;4974498;28;20233;-68
2023/03/03 03:37:38;;;;;;;14.63;7.40;;;;;;;4.01;100.00;95102.81;5005717;28;20620;-68
2023/03/03 03:40:04;;;;;;;15.17;7.73;;;;;;;3.96;100.00;95097.28;4989543;28;20734;-69
2023/03/03 03:42:30;;;;;;;15.07;7.77;;;;;;;4.05;100.00;95099.75;5007196;28;20265;-69
2023/03/03 03:44:55;;;;;;;14.73;7.80;;;;;;;4.08;100.00;95094.25;5006572;28;20240;-69
2023/03/03 03:47:20;;;;;;;15.90;8.17;;;;;;;4.00;100.00;95096.00;4973858;28;20703;-69
2023/03/03 03:49:46;;;;;;;15.97;8.00;;;;;;;3.94;100.00;95096.63;4990244;28;20257;-69
2023/03/03 03:52:11;;;;;;;13.90;7.63;;;;;;;4.04;100.00;95089.53;4990473;28;20229;-68
2023/03/03 03:54:37;;;;;;;18.30;8.23;;;;;;;4.06;100.00;95091.00;4989137;28;20239;-69
2023/03/03 03:57:02;;;;;;;15.43;8.47;;;;;;;4.01;100.00;95098.44;4986202;28;20230;-69
2023/03/03 03:59:28;;;;;;;17.90;8.97;;;;;;;3.98;100.00;95091.00;4988598;28;20719;-69
2023/03/03 04:01:53;;;;;;;15.17;8.10;;;;;;;4.03;100.00;95091.34;5006245;28;20246;-68
2023/03/03 04:04:18;;;;;;;14.30;8.20;;;;;;;4.11;100.00;95087.94;4990907;28;20230;-69
2023/03/03 04:06:44;;;;;;;18.57;8.70;;;;;;;4.20;100.00;95087.03;5002488;28;20280;-68
2023/03/03 04:09:10;;;;;;;16.90;8.90;;;;;;;4.22;100.00;95079.91;4989607;28;20288;-68
2023/03/03 04:11:35;;;;;;;16.73;8.67;;;;;;;4.07;100.00;95084.88;5006171;28;20249;-68
2023/03/03 04:14:01;;;;;;;16.77;8.63;;;;;;;3.85;100.00;95085.41;5006701;28;20230;-67
2023/03/03 04:16:26;;;;;;;22.63;10.53;;;;;;;3.85;100.00;95090.59;4974871;28;20237;-68
2023/03/03 04:18:51;;;;;;;20.67;10.30;;;;;;;3.89;100.00;95085.94;5006271;28;20230;-68
2023/03/03 04:21:17;;;;;;;17.03;9.00;;;;;;;4.04;100.00;95082.59;4985676;28;20603;-68
2023/03/03 04:23:42;;;;;;;24.07;11.27;;;;;;;3.86;100.00;95079.28;5005386;28;20230;-68
2023/03/03 04:26:08;;;;;;;23.00;11.17;;;;;;;4.00;100.00;95083.06;4986670;28;20290;-68
2023/03/03 04:28:33;;;;;;;23.80;11.63;;;;;;;3.98;100.00;95083.22;4965255;28;20227;-68
2023/03/03 04:30:59;;;;;;;16.83;9.10;;;;;;;3.93;100.00;95082.88;4970332;28;20230;-68
2023/03/03 04:33:25;;;;;;;19.57;10.27;;;;;;;4.03;100.00;95080.16;5007025;28;20230;-68
2023/03/03 04:35:50;;;;;;;36.10;15.80;;;;;;;4.19;100.00;95082.00;5023503;28;20246;-68
2023/03/03 04:38:16;;;;;;;35.87;16.17;;;;;;;4.12;100.00;95081.00;4991785;28;20246;-68
2023/03/03 04:40:41;;;;;;;61.03;26.40;;;;;;;3.96;100.00;95084.34;4989685;28;20234;-68
2023/03/03 04:43:07;;;;;;;68.67;29.47;;;;;;;4.00;100.00;95081.28;4991069;28;20263;-68
2023/03/03 04:45:32;;;;;;;38.57;16.27;;;;;;;4.00;100.00;95080.47;4990780;28;20628;-68
2023/03/03 04:47:58;;;;;;;49.43;20.57;;;;;;;3.93;100.00;95084.66;4989732;28;21240;-68
2023/03/03 04:50:23;;;;;;;50.83;21.77;;;;;;;4.05;100.00;95078.22;4975043;28;20288;-68
2023/03/03 04:52:49;;;;;;;29.33;13.47;;;;;;;3.99;100.00;95082.25;4990420;28;20230;-69
2023/03/03 04:55:15;;;;;;;23.30;11.90;;;;;;;3.98;100.00;95083.22;4974696;28;20599;-68
2023/03/03 04:57:41;;;;;;;22.97;11.73;;;;;;;3.94;100.00;95075.94;5006639;28;20923;-68
2023/03/03 05:00:08;;;;;;;31.47;15.60;;;;;;;3.86;100.00;95089.63;4990186;28;20235;-68
2023/03/03 05:02:33;;;;;;;27.40;13.10;;;;;;;3.82;100.00;95085.72;5007686;28;20237;-69
2023/03/03 05:04:59;;;;;;;42.43;20.53;;;;;;;3.89;100.00;95086.72;4991232;28;20234;-68
2023/03/03 05:07:24;;;;;;;30.23;13.87;;;;;;;4.02;100.00;95094.88;4988342;28;20338;-68
2023/03/03 05:09:50;;;;;;;28.67;14.20;;;;;;;4.09;100.00;95089.88;4989930;28;20282;-69
2023/03/03 05:12:16;;;;;;;26.83;13.77;;;;;;;4.24;100.00;95093.53;5006222;28;20610;-68
2023/03/03 05:14:41;;;;;;;27.73;12.80;;;;;;;4.32;100.00;95085.78;4989277;28;20234;-69
2023/03/03 05:17:07;;;;;;;24.20;11.80;;;;;;;4.25;100.00;95089.16;4984050;28;20288;-67
2023/03/03 05:19:33;;;;;;;30.40;14.07;;;;;;;4.07;100.00;95092.66;4973827;28;20250;-68
2023/03/03 05:21:59;;;;;;;29.37;13.57;;;;;;;3.85;100.00;95095.78;4999470;28;20227;-68
2023/03/03 05:24:24;;;;;;;34.73;16.27;;;;;;;4.03;100.00;95096.53;4989932;28;20229;-69
2023/03/03 05:26:50;;;;;;;26.70;13.23;;;;;;;4.14;100.00;95092.81;4988482;28;20286;-69
2023/03/03 05:29:15;;;;;;;26.27;12.43;;;;;;;4.05;100.00;95099.75;4989394;28;20954;-69
2023/03/03 05:31:41;;;;;;;30.60;15.20;;;;;;;4.19;100.00;95094.94;4978354;28;20253;-68
2023/03/03 05:34:06;;;;;;;25.23;13.37;;;;;;;4.21;100.00;95098.19;4989128;28;20223;-67
2023/03/03 05:36:32;;;;;;;25.33;12.70;;;;;;;4.31;100.00;95098.88;5000939;28;20250;-68
2023/03/03 05:38:57;;;;;;;29.30;14.40;;;;;;;4.32;100.00;95097.91;5006259;28;20235;-69
2023/03/03 05:41:23;;;;;;;28.33;13.73;;;;;;;4.46;100.00;95097.31;4986101;28;20230;-69
2023/03/03 05:43:48;;;;;;;25.87;11.90;;;;;;;4.52;100.00;95096.66;4986293;28;20234;-68
2023/03/03 05:46:13;;;;;;;27.17;12.87;;;;;;;4.37;100.00;95100.84;4982872;28;20243;-68
2023/03/03 05:48:39;;;;;;;27.57;13.37;;;;;;;4.24;100.00;95103.88;4963338;28;20911;-67
2023/03/03 05:51:05;;;;;;;32.20;15.90;;;;;;;4.21;100.00;95106.78;4984316;28;20234;-69
2023/03/03 05:53:30;;;;;;;27.20;12.50;;;;;;;4.19;100.00;95110.47;4972248;28;20222;-69
2023/03/03 05:55:56;;;;;;;32.27;15.20;;;;;;;4.43;100.00;95103.63;4981317;28;22355;-68
2023/03/03 05:58:22;;;;;;;25.80;11.80;;;;;;;4.30;100.00;95113.59;4981006;28;20238;-68
2023/03/03 06:00:50;;;;;;;30.60;14.93;;;;;;;4.09;100.00;95106.25;4985019;28;20438;-71
2023/03/03 06:03:16;;;;;;;42.40;20.50;;;;;;;4.23;100.00;95109.22;5002597;28;20230;-67
2023/03/03 06:05:42;;;;;;;54.00;26.90;;;;;;;4.23;100.00;95112.59;5000747;28;20243;-68
2023/03/03 06:08:07;;;;;;;29.23;15.47;;;;;;;4.35;100.00;95107.94;4988156;28;20230;-68
2023/03/03 06:10:33;;;;;;;23.80;11.83;;;;;;;4.25;100.00;95104.69;4984117;28;20786;-68
2023/03/03 06:12:58;;;;;;;32.27;17.30;;;;;;;4.41;100.00;95104.75;5003325;28;21011;-68
2023/03/03 06:15:25;;;;;;;23.27;12.70;;;;;;;4.60;100.00;95114.84;4996784;28;20242;-69
2023/03/03 06:17:51;;;;;;;28.33;13.73;;;;;;;4.63;100.00;95110.13;5002648;28;20314;-69
2023/03/03 06:20:16;;;;;;;24.40;12.37;;;;;;;4.52;100.00;95114.81;5000247;28;20349;-69
2023/03/03 06:22:41;;;;;;;25.83;12.13;;;;;;;4.61;100.00;95116.44;5004700;28;20234;-69
2023/03/03 06:25:07;;;;;;;27.57;13.07;;;;;;;4.71;100.00;95114.53;4975494;28;20230;-76
2023/03/03 06:27:33;;;;;;;24.77;11.83;;;;;;;4.62;100.00;95118.91;4982470;28;20325;-75
2023/03/03 06:29:58;;;;;;;25.30;12.53;;;;;;;4.54;100.00;95118.06;4981911;28;20231;-77
2023/03/03 06:32:24;;;;;;;23.60;11.13;;;;;;;4.45;100.00;95117.22;4980294;28;20227;-76
2023/03/03 06:34:49;;;;;;;23.27;11.50;;;;;;;4.74;100.00;95117.63;4974219;28;20564;-76
2023/03/03 06:37:15;;;;;;;23.03;11.10;;;;;;;4.65;100.00;95110.00;4996823;28;20231;-76
2023/03/03 06:39:40;;;;;;;24.17;12.20;;;;;;;4.68;100.00;95120.06;4993205;28;20230;-76
2023/03/03 06:42:08;;;;;;;20.77;11.00;;;;;;;4.66;100.00;95114.19;4980009;28;20233;-77
2023/03/03 06:44:34;;;;;;;21.83;10.67;;;;;;;4.65;100.00;95121.19;4977327;28;21033;-75
2023/03/03 06:46:59;;;;;;;21.13;10.73;;;;;;;4.71;100.00;95119.72;4967957;28;20222;-75
2023/03/03 06:49:25;;;;;;;20.30;10.03;;;;;;;4.63;100.00;95122.31;4959408;28;20249;-75
2023/03/03 06:51:50;;;;;;;21.13;10.50;;;;;;;4.74;100.00;95116.81;4977129;28;20268;-76
2023/03/03 06:54:18;;;;;;;20.33;10.13;;;;;;;4.46;100.00;95125.81;4995182;28;20219;-75
2023/03/03 06:56:44;;;;;;;19.90;10.10;;;;;;;4.67;100.00;95127.00;4975285;28;20230;-76
2023/03/03 06:59:14;;;;;;;19.93;10.10;;;;;;;4.60;100.00;95122.63;4978401;28;20226;-75
2023/03/03 07:01:40;;;;;;;18.20;9.80;;;;;;;4.65;100.00;95118.59;5000654;28;20322;-75
2023/03/03 07:04:15;;;;;;;20.73;9.77;;;;;;;4.84;100.00;95127.88;4988186;28;20229;-76
2023/03/03 07:06:41;;;;;;;19.13;9.90;;;;;;;5.06;100.00;95129.84;5003438;28;20824;-76
2023/03/03 07:09:23;;;;;;;20.73;10.70;;;;;;;5.14;100.00;95129.84;4970930;28;20233;-76
2023/03/03 07:11:50;;;;;;;21.80;9.80;;;;;;;5.21;100.00;95120.44;4969641;28;20230;-76
2023/03/03 07:14:17;;;;;;;21.17;10.43;;;;;;;5.35;100.00;95124.97;4982254;28;20318;-74
2023/03/03 07:16:42;;;;;;;19.93;10.33;;;;;;;5.31;100.00;95131.47;4971687;28;20239;-75
2023/03/03 07:19:18;;;;;;;17.97;9.93;;;;;;;5.18;100.00;95125.94;4987273;28;20234;-75
2023/03/03 07:21:43;;;;;;;16.40;9.57;;;;;;;4.95;100.00;95124.94;4988219;28;20234;-76
2023/03/03 07:24:25;;;;;;;17.87;9.53;;;;;;;5.03;100.00;95130.16;4988779;28;20234;-76
2023/03/03 07:26:51;;;;;;;15.30;8.43;;;;;;;5.15;100.00;95130.66;5005634;28;20242;-76
2023/03/03 07:29:27;;;;;;;16.07;8.93;;;;;;;4.88;100.00;95123.16;4985379;28;20337;-77
2023/03/03 07:31:53;;;;;;;15.40;8.27;;;;;;;4.97;100.00;95128.19;4978388;28;20264;-76
2023/03/03 07:34:24;;;;;;;15.33;8.43;;;;;;;5.00;100.00;95119.28;4990348;28;20226;-76
2023/03/03 07:36:58;;;;;;;15.97;8.77;;;;;;;5.01;100.00;95118.31;4983671;28;20241;-77
2023/03/03 07:39:34;;;;;;;18.23;9.70;;;;;;;5.09;100.00;95119.13;4970716;28;20215;-76
2023/03/03 07:42:08;;;;;;;21.17;10.70;;;;;;;5.17;100.00;95108.75;5003690;28;20789;-76
2023/03/03 07:44:34;;;;;;;21.70;10.73;;;;;;;5.31;100.00;95115.91;5005578;28;20225;-76
2023/03/03 07:47:12;;;;;;;20.10;10.37;;;;;;;5.29;100.00;95122.22;4991001;28;20239;-79
2023/03/03 07:49:37;;;;;;;18.27;8.50;;;;;;;4.99;100.00;95123.66;4963214;28;20233;-76
2023/03/03 07:52:26;;;;;;;21.50;10.67;;;;;;;5.11;100.00;95113.78;4993002;28;20222;-77
2023/03/03 07:54:52;;;;;;;19.37;10.27;;;;;;;5.26;100.00;95110.38;5002894;28;20241;-76
2023/03/03 07:57:24;;;;;;;62.10;23.13;;;;;;;5.28;100.00;95116.22;4966777;28;20261;-76
2023/03/03 07:59:52;;;;;;;40.30;21.03;;;;;;;5.12;100.00;95113.63;4965303;28;20743;-76
2023/03/03 08:02:45;;;;;;;43.67;21.97;;;;;;;5.35;100.00;95106.81;4983757;28;20237;-77
2023/03/03 08:05:29;;;;;;;17.23;10.13;;;;;;;5.25;100.00;95107.97;5002568;28;20230;-76
2023/03/03 08:08:02;;;;;;;27.60;16.30;;;;;;;5.14;100.00;95103.91;5002179;28;20246;-77
2023/03/03 08:10:30;;;;;;;22.67;11.53;;;;;;;5.14;100.00;95103.91;4979937;28;20624;-76
2023/03/03 08:12:57;;;;;;;32.63;16.53;;;;;;;5.31;100.00;95107.28;5003099;28;20369;-77
2023/03/03 08:15:30;;;;;;;41.43;19.27;;;;;;;5.65;100.00;95102.72;4986817;28;20276;-77
2023/03/03 08:17:55;;;;;;;38.73;19.13;;;;;;;5.62;100.00;95110.84;5002714;28;20782;-76
2023/03/03 08:20:33;;;;;;;33.47;17.77;;;;;;;5.58;100.00;95111.34;4987037;28;20234;-76
2023/03/03 08:22:59;;;;;;;37.40;20.43;;;;;;;5.39;100.00;95105.53;5003163;28;20321;-77
2023/03/03 08:25:24;;;;;;;31.30;15.53;;;;;;;5.32;100.00;95111.53;4979524;28;20326;-78
2023/03/03 08:27:49;;;;;;;21.33;11.67;;;;;;;5.22;100.00;95103.09;4986604;28;20317;-77
2023/03/03 08:30:15;;;;;;;25.97;15.43;;;;;;;5.07;100.00;95105.50;4987191;28;20226;-76
2023/03/03 08:32:41;;;;;;;26.27;15.60;;;;;;;5.12;100.00;95100.66;5002304;28;20590;-75
2023/03/03 08:35:07;;;;;;;24.57;11.30;;;;;;;5.18;100.00;95100.00;4987084;28;20704;-76
2023/03/03 08:37:32;;;;;;;29.63;15.57;;;;;;;5.26;100.00;95100.00;4986821;28;20611;-76
2023/03/03 08:39:58;;;;;;;34.13;16.80;;;;;;;5.33;100.00;95098.38;4985761;28;20676;-76
2023/03/03 08:42:23;;;;;;;36.37;17.77;;;;;;;5.41;100.00;95095.78;4970344;28;20226;-75
2023/03/03 08:44:49;;;;;;;34.97;16.40;;;;;;;5.48;100.00;95101.13;5018951;28;20226;-77
2023/03/03 08:47:14;;;;;;;24.23;12.50;;;;;;;5.76;100.00;95099.78;4970713;28;20223;-76
2023/03/03 08:49:40;;;;;;;24.33;11.60;;;;;;;5.56;100.00;95095.13;4995270;28;20876;-75
2023/03/03 08:52:05;;;;;;;23.90;11.80;;;;;;;5.69;100.00;95098.81;5004388;28;20231;-75
2023/03/03 08:54:31;;;;;;;29.30;13.27;;;;;;;5.66;100.00;95099.13;4986736;28;20226;-76
2023/03/03 08:56:56;;;;;;;26.37;12.97;;;;;;;5.50;100.00;95100.94;4985129;28;20729;-76
2023/03/03 08:59:22;;;;;;;34.27;16.47;;;;;;;5.47;100.00;95094.31;5004307;28;20731;-77
2023/03/03 09:01:47;;;;;;;31.60;14.83;;;;;;;5.77;100.00;95100.59;4985014;28;20245;-76
2023/03/03 09:04:13;;;;;;;42.10;22.97;;;;;;;5.95;100.00;95101.22;4986231;28;20222;-77
2023/03/03 09:06:38;;;;;;;25.13;12.57;;;;;;;5.99;100.00;95107.72;4985982;28;20247;-77
2023/03/03 09:09:04;;;;;;;35.73;22.13;;;;;;;5.96;100.00;95108.03;4979992;28;20219;-76
2023/03/03 09:11:31;;;;;;;57.90;40.57;;;;;;;6.04;100.00;95113.22;4976946;28;20242;-77
2023/03/03 09:14:09;;;;;;;16.93;9.23;;;;;;;5.87;98.97;95096.88;4962201;28;20704;-77
2023/03/03 09:16:37;;;;;;;24.13;15.67;;;;;;;5.91;99.36;95105.94;4970673;28;20332;-77
2023/03/03 09:19:33;;;;;;;14.70;8.10;;;;;;;6.04;99.61;95097.66;4989481;28;21100;-76
2023/03/03 09:22:02;;;;;;;17.00;9.83;;;;;;;6.13;98.39;95095.81;4982180;28;20322;-77
2023/03/03 09:24:29;;;;;;;20.67;12.73;;;;;;;6.23;99.50;95094.66;5008102;28;20241;-77
2023/03/03 09:26:57;;;;;;;21.53;13.60;;;;;;;6.34;97.51;95098.66;4985348;28;20243;-77
2023/03/03 09:29:27;;;;;;;50.40;35.47;;;;;;;6.38;97.11;95095.53;5005781;28;20253;-77
2023/03/03 09:31:54;;;;;;;17.50;11.07;;;;;;;6.54;97.79;95098.06;4989322;28;20253;-77
2023/03/03 09:34:35;;;;;;;14.50;7.70;;;;;;;6.62;97.68;95097.22;4990769;28;20266;-77
2023/03/03 09:37:00;;;;;;;15.00;8.27;;;;;;;6.51;96.66;95105.41;5017687;28;20314;-77
2023/03/03 09:39:29;;;;;;;16.77;8.77;;;;;;;6.51;96.90;95095.81;4989697;28;20238;-77
2023/03/03 09:42:21;;;;;;;14.90;8.13;;;;;;;6.65;97.43;95094.28;4971574;28;20235;-76
2023/03/03 09:45:20;;;;;;;16.77;8.53;;;;;;;6.75;98.00;95098.28;5023322;28;20231;-77
2023/03/03 09:48:03;;;;;;;14.77;8.07;;;;;;;6.88;97.00;95096.91;5003529;28;20235;-76
2023/03/03 09:51:04;;;;;;;16.60;8.20;;;;;;;6.82;96.34;95097.59;5007548;28;20258;-77
2023/03/03 09:53:51;;;;;;;18.23;8.27;;;;;;;6.74;94.78;95101.84;4997220;28;20326;-77
2023/03/03 09:56:22;;;;;;;17.03;8.27;;;;;;;6.49;95.21;95097.78;5005879;28;20242;-77
2023/03/03 09:59:02;;;;;;;14.80;8.10;;;;;;;6.76;95.91;95097.28;4986186;28;20251;-77
2023/03/03 10:01:49;;;;;;;16.87;8.73;;;;;;;7.08;95.43;95088.47;5022998;28;20252;-78
2023/03/03 10:04:43;;;;;;;16.13;8.43;;;;;;;7.11;93.05;95092.53;5007442;28;20731;-76
2023/03/03 10:07:32;;;;;;;16.47;8.57;;;;;;;7.08;94.48;95098.88;4989131;28;20227;-77
2023/03/03 10:10:00;;;;;;;18.03;8.43;;;;;;;7.16;94.40;95090.22;5004972;28;20273;-77
2023/03/03 10:12:33;;;;;;;18.53;9.43;;;;;;;7.07;95.22;95084.22;5006735;28;20242;-77
2023/03/03 10:15:16;;;;;;;18.23;9.50;;;;;;;7.05;94.32;95088.00;4987903;28;20239;-77
2023/03/03 10:17:49;;;;;;;18.30;9.83;;;;;;;7.06;91.82;95082.63;5004335;28;20300;-75
2023/03/03 10:20:17;;;;;;;15.87;8.63;;;;;;;6.99;93.18;95086.91;5005839;28;20235;-76
2023/03/03 10:22:51;;;;;;;16.63;9.10;;;;;;;7.07;94.32;95088.66;5006737;28;20845;-77
2023/03/03 10:25:53;;;;;;;16.67;8.93;;;;;;;7.08;97.18;95082.44;5005638;28;20233;-77
2023/03/03 10:28:31;;;;;;;16.70;8.43;;;;;;;7.27;96.35;95081.97;4993952;28;20236;-78
2023/03/03 10:31:44;;;;;;;15.77;8.40;;;;;;;7.06;93.90;95074.00;5024790;28;20714;-77
2023/03/03 10:34:28;;;;;;;16.63;8.80;;;;;;;7.06;93.31;95069.63;4964656;28;20234;-78
2023/03/03 10:37:18;;;;;;;15.20;8.73;;;;;;;7.06;95.04;95064.41;5008493;28;20856;-77
2023/03/03 10:40:04;;;;;;;14.87;8.47;;;;;;;7.14;94.99;95073.97;4998931;28;20231;-77
2023/03/03 10:42:54;;;;;;;15.17;9.00;;;;;;;7.10;95.11;95070.06;4990797;28;20241;-78
2023/03/03 10:46:01;;;;;;;17.03;9.23;;;;;;;6.99;94.78;95067.88;4993305;28;20242;-78
2023/03/03 10:48:32;;;;;;;18.33;10.37;;;;;;;7.13;95.73;95067.13;4947382;28;20259;-79
2023/03/03 10:51:23;;;;;;;17.80;9.70;;;;;;;7.16;95.75;95065.00;4983102;28;20661;-78
2023/03/03 10:54:21;;;;;;;22.60;11.30;;;;;;;7.21;96.96;95064.47;5009556;28;20230;-78
2023/03/03 10:56:58;;;;;;;23.20;11.87;;;;;;;7.27;97.51;95061.16;4974356;28;20237;-78
2023/03/03 10:59:48;;;;;;;23.10;12.00;;;;;;;7.25;97.40;95060.53;5008158;28;20383;-78
2023/03/03 11:02:44;;;;;;;20.50;11.03;;;;;;;7.20;95.96;95052.44;5022458;28;20321;-78
2023/03/03 11:05:31;;;;;;;20.37;10.93;;;;;;;7.10;96.33;95054.44;5022071;28;20250;-78
2023/03/03 11:08:01;;;;;;;21.50;11.27;;;;;;;7.16;97.20;95051.16;4990514;28;20233;-78
2023/03/03 11:10:47;;;;;;;20.73;10.83;;;;;;;7.07;95.03;95052.22;4991485;28;20264;-77
2023/03/03 11:13:51;;;;;;;19.30;10.80;;;;;;;7.05;95.02;95046.34;4994745;28;20308;-78
2023/03/03 11:16:16;;;;;;;18.77;10.30;;;;;;;7.05;93.99;95043.75;5009335;28;20226;-78
2023/03/03 11:19:00;;;;;;;17.47;10.00;;;;;;;7.11;95.14;95037.88;5023855;28;20733;-78
2023/03/03 11:22:06;;;;;;;19.50;10.20;;;;;;;6.85;94.53;95035.63;4992346;28;20245;-77
2023/03/03 11:25:00;;;;;;;18.23;10.23;;;;;;;6.70;94.19;95027.78;5006339;28;20291;-78
2023/03/03 11:27:33;;;;;;;21.77;11.17;;;;;;;6.88;94.18;95024.88;4995535;28;20246;-78
2023/03/03 11:30:27;;;;;;;18.40;10.53;;;;;;;7.05;94.82;95034.16;5006177;28;20264;-78
2023/03/03 11:33:24;;;;;;;19.57;10.40;;;;;;;7.10;94.04;95034.44;5023920;28;20272;-79
2023/03/03 11:36:16;;;;;;;21.73;11.47;;;;;;;7.08;95.42;95036.44;5006779;28;20272;-78
2023/03/03 11:38:47;;;;;;;24.03;12.80;;;;;;;7.05;96.98;95031.56;5007653;28;20230;-78
2023/03/03 11:41:31;;;;;;;24.53;13.17;;;;;;;7.04;95.65;95034.34;4982023;28;20265;-77